createdAt,value
2022-12-05T00:01:47.857Z,28.27
2022-12-05T00:04:16.298Z,28.80
2022-12-05T00:06:45.290Z,25.90
2022-12-05T00:09:14.608Z,24.98
2022-12-05T00:11:44.622Z,25.55
2022-12-05T00:14:13.832Z,27.73
2022-12-05T00:16:43.318Z,26.25
2022-12-05T00:19:14.986Z,27.90
2022-12-05T00:21:43.180Z,26.65
2022-12-05T00:24:14.485Z,27.50
2022-12-05T00:26:42.545Z,28.50
2022-12-05T00:29:11.110Z,30.83
2022-12-05T00:31:39.367Z,28.88
2022-12-05T00:34:07.950Z,33.33
2022-12-05T00:36:37.935Z,31.80
2022-12-05T00:39:08.605Z,28.50
2022-12-05T00:41:36.775Z,33.13
2022-12-05T00:44:06.126Z,30.90
2022-12-05T00:46:34.995Z,30.92
2022-12-05T00:49:05.529Z,30.80
2022-12-05T00:51:35.815Z,30.38
2022-12-05T00:54:07.405Z,27.65
2022-12-05T00:59:04.837Z,34.45
2022-12-05T01:01:34.831Z,34.70
2022-12-05T01:04:06.199Z,33.87
2022-12-05T01:06:34.682Z,29.90
2022-12-05T01:09:04.087Z,33.15
2022-12-05T01:11:37.759Z,30.83
2022-12-05T01:14:09.382Z,32.20
2022-12-05T01:16:39.082Z,29.88
2022-12-05T01:19:12.062Z,29.55
2022-12-05T01:21:40.133Z,28.30
2022-12-05T01:24:09.139Z,28.90
2022-12-05T01:26:38.944Z,31.33
2022-12-05T01:29:07.325Z,29.48
2022-12-05T01:31:37.991Z,30.13
2022-12-05T01:34:09.121Z,29.98
2022-12-05T01:36:39.361Z,30.15
2022-12-05T01:39:08.285Z,32.10
2022-12-05T01:41:38.931Z,31.05
2022-12-05T01:44:08.663Z,31.08
2022-12-05T01:46:38.565Z,29.92
2022-12-05T01:49:11.145Z,30.60
2022-12-05T01:51:40.735Z,30.85
2022-12-05T01:54:09.575Z,29.48
2022-12-05T01:56:40.980Z,30.05
2022-12-05T01:59:11.212Z,28.02
2022-12-05T02:01:39.954Z,30.50
2022-12-05T02:04:08.554Z,29.23
2022-12-05T02:06:36.833Z,28.70
2022-12-05T02:09:05.307Z,29.00
2022-12-05T02:11:34.829Z,26.90
2022-12-05T02:14:20.159Z,29.77
2022-12-05T02:17:01.457Z,29.73
2022-12-05T02:19:56.353Z,30.40
2022-12-05T02:22:49.883Z,28.15
2022-12-05T02:25:50.939Z,28.00
2022-12-05T02:28:45.682Z,26.88
2022-12-05T02:31:18.172Z,26.02
2022-12-05T02:33:49.522Z,25.92
2022-12-05T02:36:22.071Z,25.83
2022-12-05T02:38:54.157Z,27.42
2022-12-05T02:41:26.155Z,24.52
2022-12-05T02:43:57.418Z,25.85
2022-12-05T02:46:29.505Z,27.08
2022-12-05T02:49:00.462Z,25.10
2022-12-05T02:54:03.009Z,25.83
2022-12-05T02:56:33.956Z,23.40
2022-12-05T02:59:02.683Z,24.77
2022-12-05T03:01:33.433Z,23.95
2022-12-05T03:04:04.513Z,23.90
2022-12-05T03:09:04.081Z,23.23
2022-12-05T03:11:37.256Z,23.40
2022-12-05T03:14:08.396Z,24.23
2022-12-05T03:16:41.029Z,24.05
2022-12-05T03:19:14.017Z,25.60
2022-12-05T03:21:44.728Z,24.35
2022-12-05T03:24:15.207Z,25.20
2022-12-05T03:26:49.845Z,25.27
2022-12-05T03:29:31.379Z,25.08
2022-12-05T03:32:08.036Z,27.27
2022-12-05T03:34:44.632Z,26.70
2022-12-05T03:37:17.490Z,30.08
2022-12-05T03:39:49.670Z,27.60
2022-12-05T03:42:20.677Z,25.90
2022-12-05T03:44:52.729Z,27.77
2022-12-05T03:47:27.251Z,27.63
2022-12-05T03:49:58.551Z,28.88
2022-12-05T03:52:37.999Z,28.88
2022-12-05T03:55:19.356Z,25.23
2022-12-05T03:57:52.464Z,25.70
2022-12-05T04:00:22.463Z,25.25
2022-12-05T04:02:56.682Z,25.73
2022-12-05T04:05:27.349Z,26.48
2022-12-05T04:08:00.029Z,26.55
2022-12-05T04:10:30.851Z,21.70
2022-12-05T04:13:17.997Z,23.52
2022-12-05T04:16:08.985Z,23.63
2022-12-05T04:18:43.108Z,23.92
2022-12-05T04:21:29.662Z,24.55
2022-12-05T04:24:15.410Z,26.02
2022-12-05T04:26:47.758Z,27.88
2022-12-05T04:29:19.919Z,29.08
2022-12-05T04:31:51.698Z,25.83
2022-12-05T04:34:22.920Z,26.80
2022-12-05T04:36:54.772Z,25.63
2022-12-05T04:39:25.830Z,25.08
2022-12-05T04:41:55.293Z,23.83
2022-12-05T04:44:26.789Z,25.98
2022-12-05T04:49:26.926Z,25.85
2022-12-05T04:51:57.547Z,27.98
2022-12-05T04:54:29.393Z,61.20
2022-12-05T04:57:05.443Z,32.92
2022-12-05T04:59:33.875Z,27.42
2022-12-05T05:02:05.816Z,88.82
2022-12-05T05:04:38.806Z,28.30
2022-12-05T05:07:08.378Z,28.73
2022-12-05T05:09:37.328Z,24.50
2022-12-05T05:12:06.368Z,25.33
2022-12-05T05:14:34.809Z,27.35
2022-12-05T05:17:03.130Z,26.50
2022-12-05T05:19:32.037Z,25.55
2022-12-05T05:22:01.628Z,24.75
2022-12-05T05:24:30.086Z,25.05
2022-12-05T05:26:58.263Z,25.00
2022-12-05T05:29:26.680Z,23.35
2022-12-05T05:31:54.851Z,26.27
2022-12-05T05:34:23.350Z,27.33
2022-12-05T05:36:53.168Z,24.90
2022-12-05T05:39:22.931Z,22.33
2022-12-05T05:41:51.124Z,25.52
2022-12-05T05:44:19.634Z,24.33
2022-12-05T05:46:47.834Z,25.98
2022-12-05T05:49:16.166Z,22.63
2022-12-05T05:51:44.257Z,24.35
2022-12-05T05:54:12.646Z,24.38
2022-12-05T05:56:42.596Z,23.08
2022-12-05T05:59:10.923Z,22.60
2022-12-05T06:01:39.028Z,24.00
2022-12-05T06:04:07.936Z,23.27
2022-12-05T06:06:36.464Z,25.17
2022-12-05T06:09:07.307Z,23.38
2022-12-05T06:11:35.378Z,26.80
2022-12-05T06:14:05.231Z,26.20
2022-12-05T06:16:33.668Z,26.23
2022-12-05T06:19:02.147Z,28.67
2022-12-05T06:21:30.245Z,28.88
2022-12-05T06:23:58.793Z,29.67
2022-12-05T06:26:26.919Z,28.90
2022-12-05T06:28:55.617Z,28.20
2022-12-05T06:31:31.115Z,29.95
2022-12-05T06:34:01.986Z,26.08
2022-12-05T06:36:30.348Z,27.85
2022-12-05T06:38:59.223Z,26.05
2022-12-05T06:41:28.010Z,28.55
2022-12-05T06:44:01.927Z,29.55
2022-12-05T06:46:32.017Z,31.58
2022-12-05T06:49:00.547Z,33.38
2022-12-05T06:51:28.788Z,30.00
2022-12-05T06:53:57.486Z,31.00
2022-12-05T06:56:25.554Z,28.38
2022-12-05T06:58:55.758Z,29.90
2022-12-05T07:01:40.816Z,28.98
2022-12-05T07:04:13.327Z,29.10
2022-12-05T07:06:48.695Z,26.00
2022-12-05T07:09:19.785Z,25.63
2022-12-05T07:11:48.786Z,23.63
2022-12-05T07:14:38.737Z,24.58
2022-12-05T07:17:06.244Z,24.85
2022-12-05T07:19:36.061Z,26.02
2022-12-05T07:22:04.302Z,25.73
2022-12-05T07:24:32.618Z,25.30
2022-12-05T07:27:00.747Z,28.17
2022-12-05T07:29:29.227Z,25.45
2022-12-05T07:31:57.397Z,26.33
2022-12-05T07:34:26.393Z,27.33
2022-12-05T07:36:55.891Z,28.30
2022-12-05T07:39:24.219Z,26.73
2022-12-05T07:41:52.361Z,27.10
2022-12-05T07:44:20.618Z,28.73
2022-12-05T07:46:48.963Z,27.75
2022-12-05T07:49:17.363Z,27.75
2022-12-05T07:51:45.573Z,27.20
2022-12-05T07:54:15.384Z,27.45
2022-12-05T07:56:47.713Z,25.20
2022-12-05T07:59:16.659Z,25.75
2022-12-05T08:01:44.813Z,29.70
2022-12-05T08:04:15.595Z,27.60
2022-12-05T08:06:44.281Z,25.40
2022-12-05T08:09:12.943Z,26.25
2022-12-05T08:11:42.423Z,24.55
2022-12-05T08:14:11.452Z,22.80
2022-12-05T08:16:39.692Z,22.92
2022-12-05T08:19:09.311Z,30.42
2022-12-05T08:21:37.514Z,23.48
2022-12-05T08:24:06.746Z,22.73
2022-12-05T08:26:36.122Z,32.58
2022-12-05T08:29:08.018Z,25.88
2022-12-05T08:31:37.854Z,22.45
2022-12-05T08:34:06.371Z,24.05
2022-12-05T08:36:34.469Z,24.63
2022-12-05T08:39:05.419Z,20.90
2022-12-05T08:41:34.511Z,23.13
2022-12-05T08:44:05.772Z,23.38
2022-12-05T08:46:35.178Z,20.77
2022-12-05T08:49:04.074Z,33.08
2022-12-05T08:51:32.228Z,28.85
2022-12-05T08:54:03.276Z,24.55
2022-12-05T08:56:32.959Z,24.42
2022-12-05T08:59:05.828Z,23.45
2022-12-05T09:01:38.795Z,23.88
2022-12-05T09:04:08.377Z,22.73
2022-12-05T09:06:37.276Z,23.80
2022-12-05T09:09:08.024Z,23.08
2022-12-05T09:11:38.086Z,23.75
2022-12-05T09:14:06.955Z,23.15
2022-12-05T09:16:39.137Z,23.77
2022-12-05T09:19:13.324Z,44.30
2022-12-05T09:21:41.410Z,33.75
2022-12-05T09:24:11.650Z,25.80
2022-12-05T09:26:40.435Z,23.08
2022-12-05T09:29:15.816Z,29.15
2022-12-05T09:31:46.997Z,24.90
2022-12-05T09:34:15.755Z,24.17
2022-12-05T09:36:44.297Z,24.70
2022-12-05T09:39:12.887Z,22.25
2022-12-05T09:42:05.852Z,22.73
2022-12-05T09:44:42.648Z,21.02
2022-12-05T09:47:19.026Z,21.92
2022-12-05T09:49:51.511Z,21.23
2022-12-05T09:52:26.405Z,22.27
2022-12-05T09:54:55.353Z,21.75
2022-12-05T09:57:33.612Z,21.50
2022-12-05T10:00:04.811Z,23.73
2022-12-05T10:02:42.985Z,25.60
2022-12-05T10:05:17.061Z,33.22
2022-12-05T10:07:50.691Z,22.58
2022-12-05T10:10:27.149Z,22.98
2022-12-05T10:13:04.814Z,23.50
2022-12-05T10:15:35.748Z,20.67
2022-12-05T10:18:12.556Z,20.88
2022-12-05T10:20:46.005Z,20.27
2022-12-05T10:23:34.521Z,20.88
2022-12-05T10:26:09.112Z,20.50
2022-12-05T10:28:40.876Z,21.88
2022-12-05T10:31:11.527Z,21.55
2022-12-05T10:33:44.461Z,22.70
2022-12-05T10:36:14.216Z,20.25
2022-12-05T10:38:43.559Z,22.00
2022-12-05T10:41:14.196Z,21.55
2022-12-05T10:43:44.358Z,19.63
2022-12-05T10:46:17.283Z,19.50
2022-12-05T10:48:47.062Z,21.30
2022-12-05T10:51:18.188Z,20.48
2022-12-05T10:53:50.115Z,24.30
2022-12-05T10:56:41.074Z,23.27
2022-12-05T10:59:10.103Z,25.63
2022-12-05T11:01:39.584Z,25.45
2022-12-05T11:04:18.994Z,132.98
2022-12-05T11:06:55.522Z,44.72
2022-12-05T11:09:25.058Z,26.48
2022-12-05T11:12:15.290Z,25.38
2022-12-05T11:14:55.610Z,27.95
2022-12-05T11:17:26.931Z,25.17
2022-12-05T11:19:56.555Z,26.88
2022-12-05T11:22:33.195Z,29.15
2022-12-05T11:25:01.564Z,27.10
2022-12-05T11:27:31.926Z,24.92
2022-12-05T11:30:03.201Z,25.05
2022-12-05T11:32:33.459Z,24.92
2022-12-05T11:35:14.686Z,22.98
2022-12-05T11:37:46.383Z,25.05
2022-12-05T11:40:18.155Z,25.52
2022-12-05T11:43:06.404Z,26.08
2022-12-05T11:45:45.893Z,25.23
2022-12-05T11:48:27.887Z,23.98
2022-12-05T11:51:10.075Z,22.45
2022-12-05T11:53:48.823Z,24.25
2022-12-05T11:56:27.574Z,23.60
2022-12-05T11:59:18.893Z,24.38
2022-12-05T12:01:55.036Z,22.20
2022-12-05T12:04:36.243Z,22.17
2022-12-05T12:07:17.056Z,19.35
2022-12-05T12:09:51.075Z,30.23
2022-12-05T12:12:26.282Z,23.50
2022-12-05T12:15:01.312Z,20.45
2022-12-05T12:17:36.119Z,22.73
2022-12-05T12:20:22.648Z,23.88
2022-12-05T12:23:06.936Z,22.63
2022-12-05T12:25:44.042Z,22.13
2022-12-05T12:28:25.903Z,26.25
2022-12-05T12:31:03.704Z,24.02
2022-12-05T12:33:35.997Z,20.45
2022-12-05T12:36:13.134Z,23.48
2022-12-05T12:38:52.552Z,23.33
2022-12-05T12:41:34.378Z,27.52
2022-12-05T12:46:44.680Z,21.77
2022-12-05T12:49:33.315Z,24.02
2022-12-05T12:52:03.721Z,26.08
2022-12-05T12:55:03.893Z,27.55
2022-12-05T12:57:56.552Z,25.23
2022-12-05T13:02:57.363Z,43.30
2022-12-05T13:05:34.053Z,193.85
2022-12-05T13:08:06.231Z,90.50
2022-12-05T13:10:39.653Z,97.72
2022-12-05T13:13:09.871Z,29.23
2022-12-05T13:15:41.750Z,26.60
2022-12-05T13:18:16.169Z,24.23
2022-12-05T13:20:44.875Z,117.22
2022-12-05T13:23:14.490Z,29.67
2022-12-05T13:25:48.198Z,192.05
2022-12-05T13:28:35.484Z,28.30
2022-12-05T13:31:04.978Z,26.80
2022-12-05T13:33:35.869Z,29.45
2022-12-05T13:36:28.034Z,33.42
2022-12-05T13:39:18.213Z,25.08
2022-12-05T13:42:07.436Z,24.58
2022-12-05T13:44:41.584Z,23.73
2022-12-05T13:47:23.095Z,26.10
2022-12-05T13:49:54.325Z,25.13
2022-12-05T13:52:25.400Z,24.08
2022-12-05T13:57:51.493Z,29.02
2022-12-05T14:00:26.475Z,24.50
2022-12-05T14:02:56.958Z,25.40
2022-12-05T14:05:39.768Z,70.82
2022-12-05T14:08:47.571Z,25.30
2022-12-05T14:11:16.226Z,25.23
2022-12-05T14:13:46.298Z,25.63
2022-12-05T14:16:45.132Z,25.73
2022-12-05T14:19:35.007Z,27.55
2022-12-05T14:22:14.527Z,23.65
2022-12-05T14:24:50.693Z,27.33
2022-12-05T14:27:21.749Z,29.10
2022-12-05T14:30:00.547Z,29.33
2022-12-05T14:32:31.769Z,27.00
2022-12-05T14:35:05.493Z,32.80
2022-12-05T14:37:35.995Z,32.53
2022-12-05T14:40:19.574Z,28.42
2022-12-05T14:42:54.197Z,29.10
2022-12-05T14:45:29.428Z,37.17
2022-12-05T14:47:59.003Z,33.15
2022-12-05T14:50:40.924Z,32.45
2022-12-05T14:53:32.022Z,34.13
2022-12-05T14:56:08.058Z,63.78
2022-12-05T14:58:40.015Z,42.10
2022-12-05T15:01:16.323Z,83.93
2022-12-05T15:04:07.949Z,77.80
2022-12-05T15:06:38.817Z,41.70
2022-12-05T15:09:39.210Z,39.45
2022-12-05T15:12:11.801Z,41.83
2022-12-05T15:14:46.461Z,37.60
2022-12-05T15:17:17.638Z,35.10
2022-12-05T15:19:50.626Z,33.33
2022-12-05T15:22:21.240Z,35.75
2022-12-05T15:24:49.601Z,34.00
2022-12-05T15:27:17.938Z,35.08
2022-12-05T15:29:46.406Z,37.20
2022-12-05T15:32:26.279Z,36.33
2022-12-05T15:34:59.087Z,30.48
2022-12-05T15:37:30.139Z,41.05
2022-12-05T15:40:00.630Z,36.00
2022-12-05T15:42:31.285Z,33.65
2022-12-05T15:45:21.145Z,30.10
2022-12-05T15:47:52.309Z,36.03
2022-12-05T15:50:25.483Z,33.60
2022-12-05T15:53:00.013Z,38.75
2022-12-05T15:55:32.788Z,38.03
2022-12-05T15:58:23.532Z,36.25
2022-12-05T16:00:55.700Z,50.83
2022-12-05T16:03:27.491Z,56.85
2022-12-05T16:05:57.988Z,39.45
2022-12-05T16:08:30.334Z,46.28
2022-12-05T16:10:58.850Z,39.60
2022-12-05T16:13:28.483Z,32.83
2022-12-05T16:15:57.800Z,55.17
2022-12-05T16:18:29.434Z,69.03
2022-12-05T16:20:58.317Z,72.63
2022-12-05T16:23:30.153Z,53.63
2022-12-05T16:26:21.677Z,38.90
2022-12-05T16:28:58.714Z,37.13
2022-12-05T16:31:27.395Z,40.42
2022-12-05T16:34:05.094Z,39.85
2022-12-05T16:36:33.693Z,34.95
2022-12-05T16:39:03.417Z,35.53
2022-12-05T16:41:36.332Z,37.67
2022-12-05T16:44:13.072Z,31.58
2022-12-05T16:46:46.312Z,30.40
2022-12-05T16:49:21.131Z,34.58
2022-12-05T16:51:56.500Z,35.35
2022-12-05T16:54:24.657Z,43.35
2022-12-05T16:56:53.202Z,43.25
2022-12-05T16:59:25.025Z,50.60
2022-12-05T17:01:53.508Z,60.05
2022-12-05T17:04:23.231Z,60.38
2022-12-05T17:06:51.676Z,55.38
2022-12-05T17:09:19.746Z,45.90
2022-12-05T17:11:49.072Z,49.42
2022-12-05T17:14:18.814Z,45.72
2022-12-05T17:19:17.158Z,52.95
2022-12-05T17:21:46.837Z,68.57
2022-12-05T17:24:17.919Z,52.60
2022-12-05T17:26:46.603Z,43.47
2022-12-05T17:29:15.077Z,46.17
2022-12-05T17:31:43.178Z,43.30
2022-12-05T17:34:16.883Z,44.05
2022-12-05T17:36:46.707Z,39.42
2022-12-05T17:39:15.219Z,37.33
2022-12-05T17:41:43.286Z,38.40
2022-12-05T17:44:13.799Z,49.22
2022-12-05T17:46:42.979Z,51.28
2022-12-05T17:49:13.737Z,50.72
2022-12-05T17:52:05.462Z,48.08
2022-12-05T17:54:31.930Z,52.85
2022-12-05T17:57:00.141Z,62.92
2022-12-05T17:59:28.605Z,79.53
2022-12-05T18:01:56.685Z,92.75
2022-12-05T18:04:25.170Z,77.57
2022-12-05T18:06:53.376Z,85.78
2022-12-05T18:09:22.747Z,71.85
2022-12-05T18:11:52.138Z,61.55
2022-12-05T18:14:23.391Z,67.93
2022-12-05T18:16:51.790Z,63.72
2022-12-05T18:19:20.834Z,62.92
2022-12-05T18:21:48.899Z,53.78
2022-12-05T18:24:17.284Z,54.78
2022-12-05T18:26:45.761Z,50.05
2022-12-05T18:29:16.180Z,47.20
2022-12-05T18:31:44.323Z,44.00
2022-12-05T18:34:12.908Z,42.92
2022-12-05T18:36:41.080Z,43.00
2022-12-05T18:39:12.488Z,45.72
2022-12-05T18:41:40.563Z,48.05
2022-12-05T18:44:10.073Z,51.17
2022-12-05T18:46:39.686Z,49.00
2022-12-05T18:49:08.037Z,78.35
2022-12-05T18:51:36.080Z,96.65
2022-12-05T18:54:04.747Z,89.57
2022-12-05T18:56:35.762Z,93.68
2022-12-05T18:59:06.013Z,92.70
2022-12-05T19:01:35.815Z,81.32
2022-12-05T19:04:07.644Z,76.47
2022-12-05T19:06:37.440Z,75.68
2022-12-05T19:09:07.806Z,71.47
2022-12-05T19:11:36.484Z,61.35
2022-12-05T19:14:06.241Z,60.10
2022-12-05T19:16:35.874Z,66.63
2022-12-05T19:19:09.337Z,67.07
2022-12-05T19:21:38.045Z,69.97
2022-12-05T19:24:08.278Z,68.50
2022-12-05T19:26:36.809Z,73.43
2022-12-05T19:29:05.282Z,61.90
2022-12-05T19:31:35.821Z,59.53
2022-12-05T19:34:06.800Z,70.45
2022-12-05T19:36:39.561Z,56.72
2022-12-05T19:39:10.190Z,60.85
2022-12-05T19:41:38.301Z,64.17
2022-12-05T19:44:06.946Z,70.43
2022-12-05T19:46:35.303Z,144.18
2022-12-05T19:49:06.749Z,66.47
2022-12-05T19:51:35.766Z,50.08
2022-12-05T19:54:05.811Z,52.90
2022-12-05T19:56:35.289Z,51.75
2022-12-05T19:59:04.317Z,58.00
2022-12-05T20:01:34.782Z,56.45
2022-12-05T20:04:06.705Z,60.08
2022-12-05T20:06:36.767Z,53.63
2022-12-05T20:09:05.892Z,54.42
2022-12-05T20:11:34.198Z,58.88
2022-12-05T20:14:03.119Z,71.95
2022-12-05T20:16:31.466Z,65.43
2022-12-05T20:19:00.185Z,77.60
2022-12-05T20:21:30.991Z,88.38
2022-12-05T20:24:00.869Z,83.95
2022-12-05T20:26:30.591Z,73.25
2022-12-05T20:29:00.541Z,76.70
2022-12-05T20:31:30.089Z,76.05
2022-12-05T20:33:58.771Z,73.57
2022-12-05T20:36:29.871Z,68.40
2022-12-05T20:41:27.457Z,68.70
2022-12-05T20:43:57.566Z,69.32
2022-12-05T20:46:26.275Z,65.97
2022-12-05T20:48:57.538Z,64.75
2022-12-05T20:51:27.437Z,67.18
2022-12-05T20:53:57.788Z,67.15
2022-12-05T20:56:28.373Z,65.60
2022-12-05T20:58:58.129Z,64.05
2022-12-05T21:01:27.669Z,65.72
2022-12-05T21:03:56.675Z,67.25
2022-12-05T21:06:26.094Z,66.05
2022-12-05T21:08:55.238Z,65.13
2022-12-05T21:11:25.754Z,61.88
2022-12-05T21:13:56.958Z,62.90
2022-12-05T21:16:25.366Z,62.38
2022-12-05T21:18:55.657Z,66.70
2022-12-05T21:21:25.812Z,65.47
2022-12-05T21:23:56.156Z,67.57
2022-12-05T21:26:26.685Z,67.30
2022-12-05T21:28:55.230Z,62.55
2022-12-05T21:31:28.323Z,63.03
2022-12-05T21:33:58.042Z,60.90
2022-12-05T21:36:29.433Z,60.88
2022-12-05T21:38:57.922Z,64.78
2022-12-05T21:41:27.651Z,59.47
2022-12-05T21:43:56.223Z,57.83
2022-12-05T21:46:24.803Z,49.80
2022-12-05T21:48:53.737Z,56.47
2022-12-05T21:51:21.790Z,58.63
2022-12-05T21:53:50.589Z,56.22
2022-12-05T21:56:22.756Z,60.45
2022-12-05T21:58:53.122Z,57.03
2022-12-05T22:01:22.874Z,61.50
2022-12-05T22:03:53.668Z,58.55
2022-12-05T22:06:21.745Z,57.80
2022-12-05T22:08:50.230Z,60.03
2022-12-05T22:11:20.163Z,61.25
2022-12-05T22:13:48.998Z,60.40
2022-12-05T22:16:19.058Z,59.75
2022-12-05T22:18:47.822Z,55.90
2022-12-05T22:21:17.381Z,59.08
2022-12-05T22:23:45.818Z,60.40
2022-12-05T22:26:17.217Z,59.97
2022-12-05T22:28:45.692Z,61.85
2022-12-05T22:31:15.385Z,60.97
2022-12-05T22:33:45.908Z,59.65
2022-12-05T22:36:16.226Z,60.10
2022-12-05T22:38:45.767Z,62.78
2022-12-05T22:41:15.412Z,58.38
2022-12-05T22:43:45.083Z,62.20
2022-12-05T22:46:14.213Z,56.55
2022-12-05T22:48:42.768Z,56.80
2022-12-05T22:51:12.374Z,57.60
2022-12-05T22:53:40.940Z,62.97
2022-12-05T22:56:10.548Z,69.03
2022-12-05T22:58:39.205Z,68.20
2022-12-05T23:01:14.367Z,68.90
2022-12-05T23:03:43.858Z,77.35
2022-12-05T23:06:14.360Z,84.05
2022-12-05T23:08:43.790Z,76.70
2022-12-05T23:11:12.804Z,85.20
2022-12-05T23:13:41.400Z,73.78
2022-12-05T23:16:11.413Z,69.40
2022-12-05T23:18:47.829Z,63.90
2022-12-05T23:21:19.450Z,63.67
2022-12-05T23:23:48.381Z,67.07
2022-12-05T23:26:17.134Z,66.20
2022-12-05T23:28:45.588Z,64.95
2022-12-05T23:31:14.487Z,66.13
2022-12-05T23:33:43.000Z,65.22
2022-12-05T23:36:12.109Z,65.40
2022-12-05T23:38:43.141Z,63.25
2022-12-05T23:41:13.567Z,64.70
2022-12-05T23:43:42.515Z,69.35
2022-12-05T23:46:11.691Z,71.55
2022-12-05T23:48:40.174Z,69.50
2022-12-05T23:51:10.264Z,75.72
2022-12-05T23:53:43.328Z,75.88
2022-12-05T23:56:13.234Z,73.43
2022-12-05T23:58:41.651Z,71.13
